Time;durP1;ratioP1;P1;durP2;ratioP2;P2;SDS_P1;SDS_P2;PMS_P1;PMS_P2;Temp;Humidity;BMP_temperature;BMP_pressure;BME280_temperature;BME280_humidity;BME280_pressure;Samples;Min_cycle;Max_cycle;Signal;HPM_P1;HPM_P2
2022/12/13 08:41:13;;;;;;;33.55;11.65;;;;;;;-1.67;100.00;98390.47;2300743;77;21011;-57
2022/12/13 08:44:14;;;;;;;28.77;9.95;;;;;;;-1.83;100.00;98390.73;2300964;77;21510;-57
2022/12/13 08:47:15;;;;;;;27.37;10.32;;;;;;;-1.91;100.00;98396.48;2299454;77;21498;-57
2022/12/13 08:50:15;;;;;;;25.88;8.78;;;;;;;-1.93;100.00;98395.64;2300202;77;21537;-58
2022/12/13 08:53:16;;;;;;;24.80;8.23;;;;;;;-1.97;100.00;98413.27;2297936;77;20949;-58
2022/12/13 08:56:17;;;;;;;26.27;8.55;;;;;;;-1.99;100.00;98418.89;2302161;77;21083;-58
2022/12/13 08:59:18;;;;;;;22.87;7.67;;;;;;;-2.18;100.00;98409.36;2302494;77;21028;-58
2022/12/13 09:02:18;;;;;;;24.25;7.95;;;;;;;-2.31;100.00;98408.70;2297859;77;21682;-58
2022/12/13 09:05:19;;;;;;;24.07;8.03;;;;;;;-2.36;100.00;98411.77;2302145;77;21088;-58
2022/12/13 09:08:19;;;;;;;25.30;8.10;;;;;;;-2.38;100.00;98419.94;2297951;77;21446;-58
2022/12/13 09:11:20;;;;;;;26.68;8.78;;;;;;;-2.36;100.00;98420.31;2294063;77;20971;-58
2022/12/13 09:14:21;;;;;;;25.08;7.47;;;;;;;-2.34;100.00;98419.87;2299723;77;21119;-57
2022/12/13 09:17:21;;;;;;;33.45;10.28;;;;;;;-2.39;100.00;98427.23;2300858;77;21004;-57
2022/12/13 09:20:22;;;;;;;33.10;10.80;;;;;;;-2.22;100.00;98414.13;2290751;77;20940;-58
2022/12/13 09:23:23;;;;;;;25.48;7.75;;;;;;;-2.15;100.00;98410.14;2292667;77;21005;-57
2022/12/13 09:26:23;;;;;;;27.42;8.05;;;;;;;-2.21;100.00;98409.38;2299558;77;21478;-58
2022/12/13 09:29:24;;;;;;;20.88;5.83;;;;;;;-2.12;100.00;98412.66;2294255;77;20964;-58
2022/12/13 09:32:26;;;;;;;20.95;5.58;;;;;;;-2.06;100.00;98418.58;2297474;77;20949;-58
2022/12/13 09:35:26;;;;;;;21.93;6.20;;;;;;;-2.06;100.00;98416.01;2287676;77;20987;-57
2022/12/13 09:38:27;;;;;;;25.30;7.62;;;;;;;-2.11;100.00;98411.79;2287260;77;20932;-58
2022/12/13 09:41:27;;;;;;;31.75;9.63;;;;;;;-2.05;100.00;98425.39;2300782;77;21007;-58
2022/12/13 09:44:28;;;;;;;29.00;8.93;;;;;;;-2.21;100.00;98417.95;2286256;77;21015;-57
2022/12/13 09:47:28;;;;;;;30.48;9.83;;;;;;;-2.30;100.00;98415.52;2294849;77;21000;-57
2022/12/13 09:50:29;;;;;;;25.27;7.53;;;;;;;-2.29;100.00;98417.22;2294789;77;21348;-57
2022/12/13 09:53:29;;;;;;;27.48;7.97;;;;;;;-2.49;100.00;98423.50;2294848;77;21576;-57
2022/12/13 09:56:30;;;;;;;27.52;7.90;;;;;;;-2.49;100.00;98431.65;2294456;77;21062;-57
2022/12/13 09:59:31;;;;;;;25.08;7.95;;;;;;;-2.48;100.00;98423.92;2294236;77;21059;-57
2022/12/13 10:02:31;;;;;;;28.38;9.43;;;;;;;-2.34;100.00;98422.44;2298184;77;21026;-57
2022/12/13 10:05:32;;;;;;;24.10;7.10;;;;;;;-1.95;100.00;98416.68;2309674;77;21029;-58
2022/12/13 10:08:32;;;;;;;22.00;6.40;;;;;;;-1.70;100.00;98428.66;2302974;77;20964;-57
2022/12/13 10:11:34;;;;;;;22.65;6.92;;;;;;;-1.98;100.00;98424.45;2291652;77;21439;-58
2022/12/13 10:14:35;;;;;;;30.67;10.07;;;;;;;-2.14;100.00;98416.98;2265871;79;21072;-57
2022/12/13 10:17:35;;;;;;;27.55;8.75;;;;;;;-2.08;100.00;98413.47;2306182;77;21007;-57
2022/12/13 10:20:36;;;;;;;24.32;7.15;;;;;;;-2.03;100.00;98404.39;2306500;77;20952;-57
2022/12/13 10:23:36;;;;;;;27.25;8.13;;;;;;;-2.04;100.00;98411.68;2291952;77;21455;-58
2022/12/13 10:29:39;;;;;;;25.48;7.53;;;;;;;-1.13;100.00;98396.70;2273688;77;21001;-57
2022/12/13 10:32:39;;;;;;;26.80;7.45;;;;;;;-1.33;100.00;98384.69;2303910;77;21047;-58
2022/12/13 10:35:41;;;;;;;25.88;8.40;;;;;;;-1.56;100.00;98403.98;2305225;77;21103;-57
2022/12/13 10:38:41;;;;;;;21.48;6.35;;;;;;;-1.62;100.00;98399.80;2303073;77;20980;-58
2022/12/13 10:41:43;;;;;;;21.00;6.62;;;;;;;-1.82;100.00;98406.59;2303645;77;21004;-57
2022/12/13 10:44:43;;;;;;;21.77;6.67;;;;;;;-1.67;100.00;98400.76;2302748;77;21610;-58
2022/12/13 10:47:44;;;;;;;25.17;8.18;;;;;;;-1.52;100.00;98403.05;2241874;78;21015;-58
2022/12/13 10:50:44;;;;;;;22.27;7.22;;;;;;;-1.60;100.00;98393.34;2243941;78;21015;-57
2022/12/13 10:53:45;;;;;;;23.65;7.20;;;;;;;-1.28;100.00;98403.44;2297150;77;20972;-58
2022/12/13 10:56:45;;;;;;;24.45;7.65;;;;;;;-1.17;100.00;98395.06;2304620;77;21498;-58
2022/12/13 10:59:46;;;;;;;23.47;7.47;;;;;;;-0.81;100.00;98390.47;2307118;77;21572;-57
2022/12/13 11:02:46;;;;;;;20.95;5.85;;;;;;;-0.78;100.00;98399.41;2306433;77;21240;-57
2022/12/13 11:05:49;;;;;;;22.73;7.00;;;;;;;-1.10;100.00;98399.20;2302124;77;20988;-58
2022/12/13 11:08:49;;;;;;;21.85;6.70;;;;;;;-1.08;100.00;98394.89;2303277;77;21544;-58
2022/12/13 11:11:50;;;;;;;21.12;6.00;;;;;;;-0.92;100.00;98395.84;2288874;77;21004;-58
2022/12/13 11:14:50;;;;;;;24.27;7.50;;;;;;;-1.11;100.00;98387.66;2297970;77;20987;-58
2022/12/13 11:17:51;;;;;;;23.57;6.85;;;;;;;-0.99;100.00;98391.70;2298110;77;21007;-57
2022/12/13 11:20:51;;;;;;;24.40;7.92;;;;;;;-0.90;100.00;98395.38;2302104;77;21486;-58
2022/12/13 11:23:52;;;;;;;22.42;7.17;;;;;;;-0.74;100.00;98395.89;2307261;77;21443;-57
2022/12/13 11:26:52;;;;;;;23.83;7.33;;;;;;;-0.75;100.00;98395.05;2302933;77;21002;-58
2022/12/13 11:29:52;;;;;;;25.75;8.28;;;;;;;-0.84;100.00;98408.56;2306922;77;20983;-57
2022/12/13 11:32:53;;;;;;;23.10;6.95;;;;;;;-1.10;100.00;98404.36;2298007;77;20984;-58
2022/12/13 11:35:53;;;;;;;25.35;7.67;;;;;;;-1.52;100.00;98403.05;2299025;77;21003;-58
2022/12/13 11:38:54;;;;;;;24.15;7.28;;;;;;;-1.86;100.00;98399.80;2305170;77;20992;-58
2022/12/13 11:41:54;;;;;;;26.75;7.92;;;;;;;-2.06;100.00;98398.02;2300588;77;21542;-57
2022/12/13 11:44:55;;;;;;;26.48;7.97;;;;;;;-2.06;100.00;98396.73;2306389;77;21505;-58
2022/12/13 11:47:55;;;;;;;24.27;7.53;;;;;;;-2.06;100.00;98405.28;2297768;77;21007;-57
2022/12/13 11:50:55;;;;;;;28.77;9.53;;;;;;;-2.16;100.00;98403.73;2299462;77;20988;-58
2022/12/13 11:53:56;;;;;;;25.25;7.55;;;;;;;-2.13;100.00;98404.52;2304244;77;21023;-57
2022/12/13 11:56:58;;;;;;;28.80;8.65;;;;;;;-2.15;100.00;98402.43;2302296;77;20980;-58
2022/12/13 11:59:59;;;;;;;27.13;8.93;;;;;;;-2.06;100.00;98398.02;2303596;77;21044;-57
2022/12/13 12:02:59;;;;;;;27.17;9.05;;;;;;;-2.19;100.00;98403.80;2293751;77;21058;-57
2022/12/13 12:06:00;;;;;;;26.95;8.68;;;;;;;-2.20;100.00;98399.07;2302588;77;21078;-57
2022/12/13 12:09:00;;;;;;;31.12;10.05;;;;;;;-2.28;100.00;98406.92;2302360;77;20997;-57
2022/12/13 12:12:01;;;;;;;27.90;9.03;;;;;;;-2.40;100.00;98401.13;2305737;77;21502;-57
2022/12/13 12:15:01;;;;;;;25.57;7.53;;;;;;;-2.44;100.00;98408.05;2301534;77;21012;-57
2022/12/13 12:18:02;;;;;;;26.52;8.60;;;;;;;-2.39;100.00;98410.53;2298573;77;21067;-57
2022/12/13 12:21:03;;;;;;;27.40;9.70;;;;;;;-2.53;100.00;98409.45;2303066;77;20949;-57
2022/12/13 12:24:04;;;;;;;26.52;8.35;;;;;;;-2.49;100.00;98407.25;2301976;77;21098;-57
2022/12/13 12:27:05;;;;;;;30.65;10.35;;;;;;;-2.20;100.00;98408.52;2301483;77;21466;-57
2022/12/13 12:30:06;;;;;;;33.83;11.70;;;;;;;-1.99;100.00;98403.47;2297241;77;20967;-58
2022/12/13 12:33:07;;;;;;;29.12;10.58;;;;;;;-1.95;100.00;98405.11;2296360;77;21094;-58
2022/12/13 12:36:07;;;;;;;32.48;12.03;;;;;;;-2.02;100.00;98404.36;2297408;77;20973;-58
2022/12/13 12:39:09;;;;;;;37.13;13.72;;;;;;;-1.99;100.00;98405.59;2266900;77;20998;-57
2022/12/13 12:42:10;;;;;;;32.60;11.70;;;;;;;-1.91;100.00;98409.33;2299493;77;21522;-58
2022/12/13 12:45:11;;;;;;;29.25;10.60;;;;;;;-1.83;100.00;98410.47;2302736;77;20973;-57
2022/12/13 12:48:15;;;;;;;28.47;10.00;;;;;;;-1.86;100.00;98411.81;2301568;77;20944;-57
2022/12/13 12:51:14;;;;;;;28.65;9.98;;;;;;;-1.87;100.00;98421.23;2271928;77;21506;-57
2022/12/13 12:54:14;;;;;;;31.23;10.58;;;;;;;-1.89;100.00;98423.00;2297174;77;20992;-57
2022/12/13 12:57:15;;;;;;;31.07;10.80;;;;;;;-1.91;100.00;98422.19;2302454;77;20980;-58
2022/12/13 13:00:16;;;;;;;36.13;12.95;;;;;;;-2.18;100.00;98422.20;2293614;77;21087;-57
2022/12/13 13:03:17;;;;;;;38.38;14.25;;;;;;;-2.33;100.00;98424.14;2294390;77;20952;-57
2022/12/13 13:06:17;;;;;;;31.37;12.03;;;;;;;-2.29;100.00;98429.62;2295563;77;21012;-57
2022/12/13 13:09:18;;;;;;;30.45;10.43;;;;;;;-2.30;100.00;98431.80;2297370;77;20968;-57
2022/12/13 13:12:19;;;;;;;31.42;11.12;;;;;;;-2.41;100.00;98433.67;2300168;77;21044;-58
2022/12/13 13:15:19;;;;;;;36.73;12.95;;;;;;;-2.50;100.00;98435.08;2305464;77;21031;-57
2022/12/13 13:18:20;;;;;;;36.80;12.88;;;;;;;-2.47;100.00;98438.47;2306350;77;21471;-57
2022/12/13 13:21:20;;;;;;;33.50;12.95;;;;;;;-2.48;100.00;98446.20;2298178;77;20987;-58
2022/12/13 13:24:21;;;;;;;37.40;14.10;;;;;;;-2.51;100.00;98437.25;2303974;77;20980;-57
2022/12/13 13:27:21;;;;;;;42.90;17.17;;;;;;;-2.52;100.00;98439.41;2303432;77;21023;-58
2022/12/13 13:30:21;;;;;;;39.92;14.73;;;;;;;-2.50;100.00;98442.78;2303396;77;20941;-57
2022/12/13 13:33:22;;;;;;;38.58;15.45;;;;;;;-2.46;100.00;98441.45;2306559;77;21067;-57
2022/12/13 13:36:23;;;;;;;31.02;11.75;;;;;;;-2.37;100.00;98446.02;2302545;77;21514;-57
2022/12/13 13:39:23;;;;;;;38.25;13.60;;;;;;;-2.45;100.00;98448.27;2307174;77;20988;-57
2022/12/13 13:42:24;;;;;;;36.17;14.30;;;;;;;-2.54;100.00;98450.98;2301749;77;21011;-57
2022/12/13 13:45:26;;;;;;;40.90;14.43;;;;;;;-2.61;100.00;98448.09;2306258;77;20960;-58
2022/12/13 13:48:26;;;;;;;43.93;16.23;;;;;;;-2.67;100.00;98455.85;2297362;77;21076;-57
2022/12/13 13:51:27;;;;;;;40.17;15.03;;;;;;;-2.67;100.00;98450.72;2305972;77;21007;-57
2022/12/13 13:54:28;;;;;;;40.05;14.58;;;;;;;-2.84;100.00;98455.66;2301449;77;21008;-58
2022/12/13 13:57:31;;;;;;;40.23;15.45;;;;;;;-2.90;100.00;98464.73;2306237;77;21012;-58
2022/12/13 14:00:32;;;;;;;40.48;15.18;;;;;;;-2.98;100.00;98468.65;2306460;77;21026;-57
2022/12/13 14:03:32;;;;;;;44.48;17.82;;;;;;;-3.07;100.00;98471.78;2301572;77;21581;-57
2022/12/13 14:06:33;;;;;;;43.10;17.32;;;;;;;-3.18;100.00;98471.45;2294042;77;20949;-57
2022/12/13 14:09:33;;;;;;;44.67;16.27;;;;;;;-3.25;100.00;98469.81;2299425;77;20988;-58
2022/12/13 14:12:34;;;;;;;45.65;16.40;;;;;;;-3.16;100.00;98459.47;2306209;77;20940;-57
2022/12/13 14:15:35;;;;;;;41.48;16.77;;;;;;;-3.28;100.00;98466.01;2303038;77;20996;-58
2022/12/13 14:18:35;;;;;;;44.35;17.60;;;;;;;-3.34;100.00;98472.50;2300137;77;21502;-57
2022/12/13 14:21:35;;;;;;;47.20;18.15;;;;;;;-3.39;100.00;98471.27;2296339;77;21003;-57
2022/12/13 14:24:39;;;;;;;48.58;19.77;;;;;;;-3.35;100.00;98469.09;2297711;77;21034;-58
2022/12/13 14:27:40;;;;;;;53.60;22.50;;;;;;;-3.35;100.00;98475.50;2296871;77;21019;-57
2022/12/13 14:30:40;;;;;;;54.03;19.27;;;;;;;-3.25;100.00;98477.95;2303591;77;20933;-57
2022/12/13 14:33:41;;;;;;;56.88;19.70;;;;;;;-3.34;100.00;98474.62;2297815;77;21023;-57
2022/12/13 14:36:41;;;;;;;52.73;19.02;;;;;;;-3.36;100.00;98474.20;2302105;77;20985;-58
2022/12/13 14:39:41;;;;;;;51.75;18.90;;;;;;;-3.42;100.00;98472.59;2303700;77;20948;-57
2022/12/13 14:42:42;;;;;;;67.42;20.08;;;;;;;-3.41;100.00;98475.99;2299103;77;21544;-57
2022/12/13 14:45:43;;;;;;;53.65;18.60;;;;;;;-3.50;100.00;98482.91;2301533;77;21501;-57
2022/12/13 14:48:44;;;;;;;57.25;20.02;;;;;;;-3.52;100.00;98479.92;2299602;77;20976;-57
2022/12/13 14:51:44;;;;;;;53.10;19.73;;;;;;;-3.50;100.00;98480.78;2301594;77;21055;-58
2022/12/13 14:54:45;;;;;;;63.30;25.17;;;;;;;-3.44;100.00;98474.74;2292471;77;20960;-57
2022/12/13 14:57:45;;;;;;;74.37;30.52;;;;;;;-3.35;100.00;98484.89;2306331;77;21499;-57
2022/12/13 15:00:46;;;;;;;79.70;31.05;;;;;;;-3.25;100.00;98479.23;2301974;77;20996;-58
2022/12/13 15:03:47;;;;;;;89.05;34.25;;;;;;;-3.20;100.00;98476.20;2302753;77;21019;-57
2022/12/13 15:06:47;;;;;;;57.48;23.42;;;;;;;-3.21;100.00;98480.91;2288817;77;20980;-57
2022/12/13 15:09:48;;;;;;;42.10;15.47;;;;;;;-3.22;100.00;98484.33;2305110;77;21031;-58
2022/12/13 15:12:48;;;;;;;45.30;16.42;;;;;;;-3.32;100.00;98490.86;2304723;77;21546;-57
2022/12/13 15:15:48;;;;;;;45.08;18.67;;;;;;;-3.42;100.00;98489.67;2305942;77;21403;-58
2022/12/13 15:18:50;;;;;;;52.70;22.25;;;;;;;-3.56;100.00;98486.81;2302195;77;20992;-58
2022/12/13 15:21:50;;;;;;;49.70;20.50;;;;;;;-3.61;100.00;98485.16;2294293;77;21013;-57
2022/12/13 15:24:51;;;;;;;51.28;19.32;;;;;;;-3.66;100.00;98487.77;2288831;77;20960;-58
2022/12/13 15:27:51;;;;;;;59.50;24.80;;;;;;;-3.71;100.00;98494.64;2296851;77;21028;-57
2022/12/13 15:30:52;;;;;;;52.85;20.95;;;;;;;-3.73;100.00;98493.81;2299886;77;21484;-57
2022/12/13 15:33:54;;;;;;;48.90;20.43;;;;;;;-3.80;100.00;98489.61;2306822;77;21068;-58
2022/12/13 15:36:54;;;;;;;47.17;19.80;;;;;;;-3.80;100.00;98489.61;2292949;77;20978;-57
2022/12/13 15:39:57;;;;;;;;;;;;;;;-3.80;100.00;98494.73;2275512;77;20989;-58
2022/12/13 15:42:58;;;;;;;45.83;17.03;;;;;;;-3.77;100.00;98495.98;2288713;77;20099;-58
2022/12/13 15:46:00;;;;;;;43.90;16.82;;;;;;;-3.81;100.00;98500.71;2301995;77;20949;-58
2022/12/13 15:49:03;;;;;;;44.70;16.35;;;;;;;-3.97;100.00;98500.83;2276372;77;21027;-57
2022/12/13 15:52:03;;;;;;;;;;;;;;;-4.17;100.00;98492.00;2272225;77;20996;-57
2022/12/13 15:55:04;;;;;;;45.33;15.95;;;;;;;-4.24;100.00;98496.75;2295390;77;20377;-57
2022/12/13 15:58:04;;;;;;;45.88;17.98;;;;;;;-4.35;100.00;98495.55;2307252;77;21455;-58
2022/12/13 16:01:05;;;;;;;45.88;18.50;;;;;;;-4.49;100.00;98498.19;2302289;77;21451;-57
2022/12/13 16:04:05;;;;;;;48.10;17.67;;;;;;;-4.62;100.00;98505.08;2307798;77;20960;-58
2022/12/13 16:07:06;;;;;;;46.68;16.87;;;;;;;-4.73;100.00;98509.39;2302610;77;21002;-57
2022/12/13 16:10:06;;;;;;;40.12;15.75;;;;;;;-4.79;100.00;98503.03;2304270;77;20980;-58
2022/12/13 16:13:06;;;;;;;38.90;16.15;;;;;;;-4.93;100.00;98512.03;2298513;77;20936;-57
2022/12/13 16:16:08;;;;;;;46.40;17.90;;;;;;;-5.03;100.00;98520.16;2298771;77;21087;-58
2022/12/13 16:19:08;;;;;;;50.33;19.77;;;;;;;-5.12;100.00;98518.92;2297598;77;20998;-58
2022/12/13 16:22:08;;;;;;;50.98;19.55;;;;;;;-5.26;100.00;98522.78;2306835;77;20960;-57
2022/12/13 16:25:10;;;;;;;53.65;20.90;;;;;;;-5.40;100.00;98519.00;2287983;77;21007;-58
2022/12/13 16:28:11;;;;;;;53.02;21.68;;;;;;;-5.46;100.00;98513.88;2304979;77;21490;-57
2022/12/13 16:31:12;;;;;;;54.55;22.50;;;;;;;-5.43;100.00;98518.56;2297547;77;20983;-58
2022/12/13 16:34:12;;;;;;;59.63;23.45;;;;;;;-5.45;100.00;98516.86;2302945;77;21019;-57
2022/12/13 16:37:13;;;;;;;56.42;23.62;;;;;;;-5.44;100.00;98515.58;2307395;77;21024;-57
2022/12/13 16:40:14;;;;;;;60.65;24.50;;;;;;;-5.41;100.00;98517.28;2306490;77;21455;-58
2022/12/13 16:43:14;;;;;;;60.17;23.73;;;;;;;-5.39;100.00;98513.01;2297374;77;20979;-58
2022/12/13 16:46:17;;;;;;;59.75;25.70;;;;;;;-5.45;100.00;98517.70;2291280;77;20976;-58
2022/12/13 16:49:17;;;;;;;70.42;29.45;;;;;;;-5.44;100.00;98522.41;2306097;77;21475;-58
2022/12/13 16:52:20;;;;;;;74.20;32.70;;;;;;;-5.54;100.00;98524.55;2308144;77;20949;-57
2022/12/13 16:55:20;;;;;;;79.58;34.20;;;;;;;-5.70;100.00;98521.13;2280075;77;21494;-58
2022/12/13 16:58:22;;;;;;;82.08;35.43;;;;;;;-5.70;100.00;98522.00;2299504;77;20971;-57
2022/12/13 17:01:23;;;;;;;90.53;37.65;;;;;;;-5.87;100.00;98521.16;2300241;77;21064;-58
2022/12/13 17:04:26;;;;;;;103.02;42.08;;;;;;;-5.79;100.00;98524.55;2298556;77;21440;-57
2022/12/13 17:07:25;;;;;;;151.85;63.17;;;;;;;-5.93;100.00;98526.68;2271541;77;20977;-58
2022/12/13 17:10:26;;;;;;;137.88;56.70;;;;;;;-6.08;100.00;98529.69;2298005;77;21499;-58
2022/12/13 17:13:26;;;;;;;128.27;51.08;;;;;;;-6.10;100.00;98531.80;2305877;77;20977;-57
2022/12/13 17:16:27;;;;;;;122.25;49.10;;;;;;;-6.21;100.00;98547.96;2302551;77;21001;-57
2022/12/13 17:19:28;;;;;;;110.03;45.55;;;;;;;-6.28;100.00;98546.69;2299512;77;21019;-57
2022/12/13 17:22:28;;;;;;;120.97;47.78;;;;;;;-6.29;100.00;98547.52;2302011;77;20981;-57
2022/12/13 17:25:29;;;;;;;133.32;53.78;;;;;;;-6.32;100.00;98553.91;2292455;77;21503;-57
2022/12/13 17:28:29;;;;;;;156.60;59.20;;;;;;;-6.43;100.00;98560.67;2306040;77;20988;-57
2022/12/13 17:31:30;;;;;;;125.58;49.38;;;;;;;-6.66;100.00;98558.89;2297715;77;21043;-57
2022/12/13 17:34:31;;;;;;;139.62;57.45;;;;;;;-6.72;100.00;98563.11;2306567;77;21011;-57
2022/12/13 17:37:32;;;;;;;122.20;50.40;;;;;;;-6.76;100.00;98567.36;2298777;77;20980;-58
2022/12/13 17:40:32;;;;;;;118.77;48.52;;;;;;;-6.87;100.00;98570.28;2302923;77;21521;-58
2022/12/13 17:43:33;;;;;;;109.22;43.85;;;;;;;-6.99;100.00;98560.87;2306412;77;20971;-58
2022/12/13 17:46:33;;;;;;;116.73;45.73;;;;;;;-7.04;100.00;98563.41;2301928;77;20994;-57
2022/12/13 17:49:33;;;;;;;104.80;45.08;;;;;;;-7.20;100.00;98560.33;2299315;77;20994;-57
2022/12/13 17:52:35;;;;;;;93.10;39.35;;;;;;;-7.27;100.00;98561.97;2298229;77;20947;-57
2022/12/13 17:55:38;;;;;;;96.97;40.65;;;;;;;-7.44;100.00;98563.16;2298508;77;21003;-58
2022/12/13 17:58:38;;;;;;;95.10;38.02;;;;;;;-7.54;100.00;98567.33;2301586;77;21008;-57
2022/12/13 18:01:39;;;;;;;92.75;36.48;;;;;;;-7.59;100.00;98566.86;2305886;77;21019;-57
2022/12/13 18:04:41;;;;;;;96.67;42.20;;;;;;;-7.64;100.00;98572.33;2298148;77;21103;-57
2022/12/13 18:07:41;;;;;;;132.47;55.70;;;;;;;-7.66;100.00;98571.92;2255074;78;21060;-58
2022/12/13 18:10:42;;;;;;;139.92;57.00;;;;;;;-7.67;100.00;98565.51;2302166;77;21526;-58
2022/12/13 18:13:45;;;;;;;122.90;48.60;;;;;;;-7.71;100.00;98574.00;2298124;77;21027;-57
2022/12/13 18:16:46;;;;;;;117.37;39.50;;;;;;;-7.78;100.00;98577.33;2306137;77;21443;-58
2022/12/13 18:19:46;;;;;;;78.65;32.05;;;;;;;-7.87;100.00;98574.29;2296862;77;20972;-57
2022/12/13 18:22:48;;;;;;;75.72;30.20;;;;;;;-8.01;100.00;98590.70;2297932;77;20983;-57
2022/12/13 18:25:49;;;;;;;79.03;31.10;;;;;;;-8.14;100.00;98592.27;2304891;77;21080;-57
2022/12/13 18:28:50;;;;;;;89.97;36.20;;;;;;;-8.26;100.00;98589.59;2303794;77;21072;-57
2022/12/13 18:31:51;;;;;;;124.25;48.73;;;;;;;-8.38;100.00;98594.97;2307398;77;21301;-57
2022/12/13 18:34:51;;;;;;;136.10;50.83;;;;;;;-8.45;100.00;98596.20;2302000;77;20953;-57
2022/12/13 18:37:51;;;;;;;117.93;47.15;;;;;;;-8.52;100.00;98600.35;2301714;77;20991;-57
2022/12/13 18:40:54;;;;;;;113.08;47.08;;;;;;;-8.58;100.00;98602.83;2300398;77;21502;-57
2022/12/13 18:43:54;;;;;;;103.35;42.13;;;;;;;-8.56;100.00;98602.42;2243289;79;21005;-57
2022/12/13 18:46:55;;;;;;;94.90;41.10;;;;;;;-8.54;100.00;98598.22;2301858;77;21517;-57
2022/12/13 18:49:56;;;;;;;99.10;39.30;;;;;;;-8.47;100.00;98594.91;2246567;78;21011;-57
2022/12/13 18:55:59;;;;;;;;;;;;;;;-8.45;100.00;98600.02;2270237;77;21593;-58
2022/12/13 18:58:59;;;;;;;80.85;29.98;;;;;;;-8.45;100.00;98607.22;2281316;77;20186;-58
2022/12/13 19:02:00;;;;;;;89.32;32.48;;;;;;;-8.43;100.00;98609.34;2289359;77;21073;-57
2022/12/13 19:05:00;;;;;;;83.80;32.93;;;;;;;-8.49;100.00;98609.32;2289081;77;21467;-57
2022/12/13 19:08:00;;;;;;;121.28;43.25;;;;;;;-8.66;100.00;98609.11;2284947;77;21545;-58
2022/12/13 19:11:02;;;;;;;119.82;41.75;;;;;;;-8.74;100.00;98612.81;2280064;77;21013;-58
2022/12/13 19:14:03;;;;;;;119.82;43.25;;;;;;;-8.83;100.00;98614.37;2213330;79;20956;-57
2022/12/13 19:17:03;;;;;;;113.80;43.42;;;;;;;-8.86;100.00;98613.06;2230064;79;21015;-58
2022/12/13 19:20:05;;;;;;;126.95;45.75;;;;;;;-8.76;100.00;98618.73;2226962;79;21531;-58
2022/12/13 19:23:05;;;;;;;120.55;44.08;;;;;;;-8.63;100.00;98619.71;2246274;78;21015;-58
2022/12/13 19:26:06;;;;;;;120.62;45.70;;;;;;;-8.46;100.00;98623.74;2239047;78;20989;-58
2022/12/13 19:29:07;;;;;;;131.55;46.73;;;;;;;-8.48;100.00;98630.08;2236782;79;21135;-58
2022/12/13 19:32:08;;;;;;;144.80;51.67;;;;;;;-8.45;100.00;98620.38;2215733;79;21472;-57
2022/12/13 19:35:09;;;;;;;129.38;46.75;;;;;;;-8.28;100.00;98619.27;2238235;78;20962;-57
2022/12/13 19:38:09;;;;;;;118.82;45.67;;;;;;;-8.05;100.00;98620.35;2238517;79;21017;-57
2022/12/13 19:41:10;;;;;;;134.03;47.40;;;;;;;-7.94;100.00;98626.84;2226326;79;21011;-57
2022/12/13 19:44:11;;;;;;;147.50;50.15;;;;;;;-7.94;100.00;98624.69;2213684;79;20992;-57
2022/12/13 19:47:12;;;;;;;131.75;43.25;;;;;;;-7.93;100.00;98627.68;2228583;79;21490;-58
2022/12/13 19:50:12;;;;;;;148.95;51.92;;;;;;;-7.74;100.00;98619.39;2232237;79;21019;-57
2022/12/13 19:53:13;;;;;;;146.85;53.13;;;;;;;-7.57;100.00;98618.66;2229816;79;21016;-57
2022/12/13 19:56:16;;;;;;;144.93;53.05;;;;;;;-7.45;100.00;98610.29;2226248;79;20997;-58
2022/12/13 19:59:16;;;;;;;142.45;50.20;;;;;;;-7.39;100.00;98609.89;2197238;79;21001;-58
2022/12/13 20:02:17;;;;;;;121.28;43.40;;;;;;;-7.35;100.00;98608.23;2227870;79;20992;-58
2022/12/13 20:05:18;;;;;;;140.62;52.58;;;;;;;-7.39;100.00;98610.33;2227271;79;21135;-58
2022/12/13 20:08:19;;;;;;;155.37;61.10;;;;;;;-7.49;100.00;98611.95;2222982;79;20987;-57
2022/12/13 20:11:19;;;;;;;170.22;64.27;;;;;;;-7.85;100.00;98619.27;2216919;79;21007;-57
2022/12/13 20:14:20;;;;;;;137.62;50.40;;;;;;;-8.01;100.00;98622.52;2229153;79;21048;-57
2022/12/13 20:17:21;;;;;;;176.65;63.80;;;;;;;-8.12;100.00;98622.83;2227365;79;21039;-57
2022/12/13 20:20:23;;;;;;;151.53;55.23;;;;;;;-8.33;100.00;98629.40;2231969;79;21036;-57
2022/12/13 20:23:24;;;;;;;160.72;56.23;;;;;;;-8.55;100.00;98629.58;2213037;79;21041;-57
2022/12/13 20:26:24;;;;;;;146.72;51.05;;;;;;;-8.61;100.00;98626.96;2226068;79;20993;-57
2022/12/13 20:29:25;;;;;;;118.45;43.98;;;;;;;-8.50;100.00;98627.08;2212896;79;21519;-57
2022/12/13 20:32:25;;;;;;;90.30;34.98;;;;;;;-8.49;100.00;98622.44;2217693;79;20976;-57
2022/12/13 20:35:26;;;;;;;88.55;32.70;;;;;;;-8.49;100.00;98626.25;2220089;79;20957;-57
2022/12/13 20:38:27;;;;;;;89.67;30.92;;;;;;;-8.46;100.00;98626.28;2231652;79;21126;-57
2022/12/13 20:41:27;;;;;;;79.50;29.18;;;;;;;-8.43;100.00;98619.92;2221649;79;20989;-58
2022/12/13 20:44:28;;;;;;;98.37;35.63;;;;;;;-8.33;100.00;98620.49;2212345;79;21530;-57
2022/12/13 20:47:29;;;;;;;88.40;33.42;;;;;;;-8.30;100.00;98619.65;2214067;79;21020;-58
2022/12/13 20:50:30;;;;;;;75.08;29.25;;;;;;;-8.42;100.00;98616.16;2237686;79;21029;-57
2022/12/13 20:53:30;;;;;;;99.30;34.25;;;;;;;-8.45;100.00;98617.39;2234534;79;20997;-57
2022/12/13 20:56:33;;;;;;;74.85;28.77;;;;;;;-8.54;100.00;98609.67;2223310;79;21059;-57
2022/12/13 20:59:33;;;;;;;71.42;27.17;;;;;;;-8.72;100.00;98611.55;2232021;79;21022;-57
2022/12/13 21:02:34;;;;;;;72.20;27.80;;;;;;;-8.80;100.00;98608.08;2240812;79;21067;-57
2022/12/13 21:05:35;;;;;;;71.17;27.52;;;;;;;-8.86;100.00;98619.02;2210726;79;21036;-57
2022/12/13 21:11:38;;;;;;;;;;;;;;;-9.19;100.00;98615.57;2216718;79;21044;-57
2022/12/13 21:14:39;;;;;;;96.67;32.05;;;;;;;-9.38;100.00;98608.09;2221899;79;20092;-58
2022/12/13 21:17:40;;;;;;;123.65;38.58;;;;;;;-9.47;100.00;98618.97;2218386;79;21004;-57
2022/12/13 21:20:41;;;;;;;128.65;42.15;;;;;;;-9.41;100.00;98623.75;2221526;79;21574;-57
2022/12/13 21:23:42;;;;;;;128.20;42.50;;;;;;;-9.37;100.00;98619.98;2233833;79;20992;-57
2022/12/13 21:26:43;;;;;;;105.00;32.03;;;;;;;-9.44;100.00;98626.64;2219693;79;20966;-57
2022/12/13 21:29:44;;;;;;;88.62;31.15;;;;;;;-9.46;100.00;98626.61;2219383;79;21029;-58
2022/12/13 21:32:44;;;;;;;100.20;38.08;;;;;;;-9.38;100.00;98627.99;2213364;79;21492;-57
2022/12/13 21:35:45;;;;;;;76.53;25.57;;;;;;;-9.58;100.00;98623.90;2216455;79;20969;-57
2022/12/13 21:38:45;;;;;;;67.87;24.35;;;;;;;-9.67;100.00;98637.70;2245392;79;20986;-57
2022/12/13 21:41:46;;;;;;;73.45;24.72;;;;;;;-9.76;100.00;98636.70;2219565;79;20953;-57
2022/12/13 21:44:46;;;;;;;66.17;23.40;;;;;;;-9.88;100.00;98635.63;2230253;79;20937;-57
2022/12/13 21:47:47;;;;;;;60.33;23.02;;;;;;;-9.90;100.00;98638.14;2211388;79;21451;-57
2022/12/13 21:50:47;;;;;;;59.75;21.50;;;;;;;-9.89;100.00;98642.40;2222172;79;20981;-57
2022/12/13 21:53:47;;;;;;;64.22;23.90;;;;;;;-10.00;100.00;98654.88;2217034;79;20992;-58
2022/12/13 21:59:50;;;;;;;;;;;;;;;-10.15;100.00;98654.20;2217103;79;20989;-58
2022/12/13 22:02:51;;;;;;;56.08;20.32;;;;;;;-10.15;100.00;98663.50;2228383;79;20094;-58
2022/12/13 22:05:52;;;;;;;59.30;21.00;;;;;;;-10.30;100.00;98662.38;2235117;79;21526;-57
2022/12/13 22:08:52;;;;;;;62.13;22.10;;;;;;;-10.39;100.00;98660.09;2231180;79;21001;-57
2022/12/13 22:11:52;;;;;;;71.65;24.95;;;;;;;-10.37;100.00;98660.97;2230806;79;20969;-57
2022/12/13 22:14:53;;;;;;;56.50;22.10;;;;;;;-10.41;100.00;98657.92;2215866;79;20958;-57
2022/12/13 22:17:54;;;;;;;54.73;21.13;;;;;;;-10.33;100.00;98657.64;2205643;79;20980;-58
2022/12/13 22:20:55;;;;;;;71.25;24.32;;;;;;;-10.32;100.00;98660.63;2219861;79;20989;-57
2022/12/13 22:23:55;;;;;;;81.90;26.33;;;;;;;-10.24;100.00;98656.96;2225914;79;21055;-58
2022/12/13 22:26:56;;;;;;;97.25;30.32;;;;;;;-10.06;100.00;98656.05;2221810;79;21475;-57
2022/12/13 22:29:57;;;;;;;63.95;23.27;;;;;;;-10.12;100.00;98655.94;2224724;79;21032;-58
2022/12/13 22:32:57;;;;;;;75.17;25.35;;;;;;;-10.23;100.00;98656.98;2232750;79;21000;-58